createdAt,value
2022-12-25T00:04:08.515Z,87.80
2022-12-25T00:09:14.883Z,75.10
2022-12-25T00:14:18.355Z,82.50
2022-12-25T00:19:20.031Z,86.20
2022-12-25T00:24:21.756Z,84.10
2022-12-25T00:29:23.468Z,103.10
2022-12-25T00:34:26.779Z,98.00
2022-12-25T00:39:28.571Z,98.10
2022-12-25T00:44:30.531Z,87.60
2022-12-25T00:49:32.406Z,87.50
2022-12-25T00:54:34.312Z,58.90
2022-12-25T00:59:35.966Z,60.00
2022-12-25T01:04:37.734Z,84.70
2022-12-25T01:09:58.446Z,77.60
2022-12-25T01:15:00.245Z,78.40
2022-12-25T01:20:02.515Z,83.20
2022-12-25T01:25:06.388Z,82.80
2022-12-25T01:30:09.005Z,79.80
2022-12-25T01:35:12.079Z,87.60
2022-12-25T01:40:14.127Z,79.90
2022-12-25T01:45:36.247Z,81.50
2022-12-25T01:50:42.382Z,82.30
2022-12-25T01:55:48.068Z,67.00
2022-12-25T02:00:51.507Z,69.70
2022-12-25T02:05:54.744Z,72.70
2022-12-25T02:10:56.539Z,65.60
2022-12-25T02:16:08.673Z,67.30
2022-12-25T02:21:22.709Z,66.50
2022-12-25T02:26:45.833Z,66.90
2022-12-25T02:32:05.763Z,60.90
2022-12-25T02:37:14.644Z,73.70
2022-12-25T02:42:47.206Z,79.10
2022-12-25T02:48:08.005Z,84.40
2022-12-25T02:53:29.488Z,76.10
2022-12-25T02:58:53.117Z,81.20
2022-12-25T03:04:16.920Z,81.30
2022-12-25T03:09:43.415Z,72.60
2022-12-25T03:15:03.952Z,74.00
2022-12-25T03:20:25.675Z,62.40
2022-12-25T03:25:47.108Z,61.10
2022-12-25T03:31:14.248Z,64.90
2022-12-25T03:36:31.006Z,60.90
2022-12-25T03:42:06.651Z,61.40
2022-12-25T03:47:34.926Z,67.20
2022-12-25T03:52:57.159Z,67.20
2022-12-25T03:58:17.849Z,67.60
2022-12-25T04:03:38.685Z,68.30
2022-12-25T04:08:59.363Z,70.90
2022-12-25T04:14:19.773Z,69.80
2022-12-25T04:19:40.376Z,62.70
2022-12-25T04:25:00.942Z,84.30
2022-12-25T04:30:21.365Z,112.80
2022-12-25T04:35:41.865Z,95.00
2022-12-25T04:40:43.849Z,162.00
2022-12-25T04:45:52.922Z,133.30
2022-12-25T04:50:55.145Z,81.00
2022-12-25T04:56:03.205Z,79.70
2022-12-25T05:01:05.819Z,118.30
2022-12-25T05:06:07.660Z,123.00
2022-12-25T05:11:12.583Z,119.80
2022-12-25T05:16:17.739Z,128.90
2022-12-25T05:21:20.094Z,77.90
2022-12-25T05:26:24.634Z,70.20
2022-12-25T05:31:26.388Z,93.20
2022-12-25T05:36:28.352Z,180.70
2022-12-25T05:41:34.253Z,122.10
2022-12-25T05:46:36.660Z,100.40
2022-12-25T05:51:38.556Z,109.00
2022-12-25T05:56:40.249Z,176.90
2022-12-25T06:01:42.339Z,185.10
2022-12-25T06:06:44.307Z,93.10
2022-12-25T06:11:46.001Z,82.50
2022-12-25T06:16:52.482Z,145.90
2022-12-25T06:21:55.717Z,85.30
2022-12-25T06:26:57.482Z,101.20
2022-12-25T06:31:59.295Z,147.90
2022-12-25T06:37:01.064Z,122.60
2022-12-25T06:42:03.308Z,82.50
2022-12-25T06:47:05.906Z,74.60
2022-12-25T06:52:07.731Z,81.50
2022-12-25T06:57:09.488Z,99.40
2022-12-25T07:02:19.616Z,142.40
2022-12-25T07:07:23.022Z,105.10
2022-12-25T07:12:24.915Z,85.80
2022-12-25T07:17:26.618Z,105.90
2022-12-25T07:22:30.152Z,107.20
2022-12-25T07:27:31.919Z,98.40
2022-12-25T07:32:33.661Z,116.00
2022-12-25T07:37:35.514Z,115.40
2022-12-25T07:42:37.209Z,122.40
2022-12-25T07:47:39.753Z,100.30
2022-12-25T07:52:43.829Z,101.30
2022-12-25T07:57:45.690Z,100.30
2022-12-25T08:03:09.511Z,105.10
2022-12-25T08:08:11.362Z,93.90
2022-12-25T08:13:14.790Z,94.80
2022-12-25T08:18:16.839Z,74.10
2022-12-25T08:23:18.530Z,67.00
2022-12-25T08:28:20.165Z,69.60
2022-12-25T08:33:21.995Z,65.40
2022-12-25T08:38:23.767Z,61.10
2022-12-25T08:43:25.424Z,59.30
2022-12-25T08:48:27.739Z,58.90
2022-12-25T08:53:29.515Z,69.00
2022-12-25T08:58:31.487Z,59.40
2022-12-25T09:03:34.122Z,62.30
2022-12-25T09:08:38.822Z,82.80
2022-12-25T09:13:42.807Z,69.20
2022-12-25T09:18:44.649Z,65.80
2022-12-25T09:23:46.392Z,67.90
2022-12-25T09:28:51.840Z,61.50
2022-12-25T09:33:58.099Z,72.30
2022-12-25T09:38:59.802Z,75.50
2022-12-25T09:44:11.408Z,69.20
2022-12-25T09:49:22.687Z,73.30
2022-12-25T09:54:46.142Z,58.40
2022-12-25T09:59:47.832Z,66.50
2022-12-25T10:05:11.106Z,65.10
2022-12-25T10:10:46.286Z,61.40
2022-12-25T10:16:17.293Z,47.40
2022-12-25T10:21:19.946Z,48.90
2022-12-25T10:26:25.237Z,59.90
2022-12-25T10:31:30.355Z,43.50
2022-12-25T10:36:33.394Z,39.10
2022-12-25T10:41:59.912Z,33.50
2022-12-25T10:47:04.485Z,42.00
2022-12-25T10:52:20.943Z,41.30
2022-12-25T10:57:25.361Z,48.50
2022-12-25T11:02:31.460Z,48.20
2022-12-25T11:07:46.472Z,47.20
2022-12-25T11:12:48.434Z,46.50
2022-12-25T11:17:50.144Z,40.50
2022-12-25T11:22:51.813Z,40.50
2022-12-25T11:27:59.045Z,73.90
2022-12-25T11:33:09.894Z,56.30
2022-12-25T11:38:11.602Z,52.90
2022-12-25T11:43:18.292Z,48.50
2022-12-25T11:48:28.151Z,44.40
2022-12-25T11:53:44.038Z,45.70
2022-12-25T11:58:52.255Z,38.30
2022-12-25T12:03:55.220Z,38.10
2022-12-25T12:09:14.551Z,29.30
2022-12-25T12:14:19.218Z,32.30
2022-12-25T12:19:31.475Z,31.20
2022-12-25T12:24:41.091Z,34.10
2022-12-25T12:29:50.053Z,27.80
2022-12-25T12:34:51.804Z,33.60
2022-12-25T12:39:55.111Z,34.90
2022-12-25T12:45:06.524Z,36.80
2022-12-25T12:50:29.065Z,39.60
2022-12-25T12:55:35.399Z,41.90
2022-12-25T13:01:02.846Z,32.40
2022-12-25T13:06:33.700Z,26.30
2022-12-25T13:11:41.277Z,31.90
2022-12-25T13:22:02.763Z,37.80
2022-12-25T13:27:32.576Z,38.90
2022-12-25T13:32:35.006Z,42.90
2022-12-25T13:37:37.116Z,38.80
2022-12-25T13:42:41.863Z,41.70
2022-12-25T13:47:48.661Z,40.00
2022-12-25T13:52:57.362Z,46.00
2022-12-25T13:58:02.399Z,55.20
2022-12-25T14:03:14.020Z,47.20
2022-12-25T14:08:21.792Z,49.00
2022-12-25T14:18:29.892Z,62.20
2022-12-25T14:23:43.035Z,49.70
2022-12-25T14:28:50.432Z,41.30
2022-12-25T14:33:54.200Z,128.60
2022-12-25T14:38:59.042Z,118.40
2022-12-25T14:44:04.013Z,69.00
2022-12-25T14:49:20.951Z,67.70
2022-12-25T14:54:23.548Z,85.60
2022-12-25T14:59:26.892Z,99.60
2022-12-25T15:04:29.792Z,114.60
2022-12-25T15:09:32.118Z,79.20
2022-12-25T15:14:36.617Z,76.50
2022-12-25T15:19:38.965Z,83.30
2022-12-25T15:24:40.906Z,67.70
2022-12-25T15:35:06.836Z,50.20
2022-12-25T15:40:11.811Z,66.70
2022-12-25T15:45:22.233Z,63.90
2022-12-25T15:50:24.571Z,72.40
2022-12-25T15:55:26.333Z,70.30
2022-12-25T16:00:28.031Z,122.50
2022-12-25T16:05:29.757Z,92.90
2022-12-25T16:10:36.773Z,115.50
2022-12-25T16:15:46.344Z,139.80
2022-12-25T16:20:48.113Z,203.20
2022-12-25T16:25:49.893Z,166.20
2022-12-25T16:30:51.557Z,152.20
2022-12-25T16:35:53.376Z,107.90
2022-12-25T16:40:57.975Z,109.30
2022-12-25T16:45:59.790Z,109.30
2022-12-25T16:51:08.200Z,75.90
2022-12-25T16:56:16.189Z,75.00
2022-12-25T17:01:21.263Z,89.90
2022-12-25T17:06:25.709Z,79.80
2022-12-25T17:11:29.957Z,74.80
2022-12-25T17:16:37.231Z,72.20
2022-12-25T17:21:39.126Z,106.40
2022-12-25T17:26:41.652Z,109.60
2022-12-25T17:31:43.440Z,108.70
2022-12-25T17:36:45.168Z,124.30
2022-12-25T17:41:49.997Z,111.30
2022-12-25T17:46:51.780Z,114.10
2022-12-25T17:51:53.967Z,111.70
2022-12-25T17:56:55.637Z,119.00
2022-12-25T18:01:57.676Z,113.80
2022-12-25T18:06:59.511Z,124.80
2022-12-25T18:12:01.240Z,124.80
2022-12-25T18:17:02.985Z,139.40
2022-12-25T18:22:04.786Z,128.70
2022-12-25T18:27:07.027Z,121.30
2022-12-25T18:32:08.801Z,118.10
2022-12-25T18:37:10.625Z,105.50
2022-12-25T18:42:31.341Z,107.70
2022-12-25T18:47:33.579Z,103.90
2022-12-25T18:52:48.335Z,114.20
2022-12-25T19:02:58.419Z,123.60
2022-12-25T19:08:00.090Z,109.10
2022-12-25T19:13:01.867Z,120.40
2022-12-25T19:18:04.039Z,121.80
2022-12-25T19:23:06.242Z,110.10
2022-12-25T19:28:07.857Z,119.10
2022-12-25T19:33:14.099Z,115.00
2022-12-25T19:38:20.281Z,145.10
2022-12-25T19:43:22.050Z,140.30
2022-12-25T19:48:24.458Z,120.40
2022-12-25T19:53:27.045Z,103.50
2022-12-25T19:58:29.781Z,124.10
2022-12-25T20:03:40.179Z,106.60
2022-12-25T20:08:49.020Z,112.00
2022-12-25T20:13:51.059Z,115.40
2022-12-25T20:18:53.501Z,122.30
2022-12-25T20:23:56.307Z,115.20
2022-12-25T20:28:59.434Z,113.30
2022-12-25T20:34:06.336Z,99.10
2022-12-25T20:39:10.827Z,97.60
2022-12-25T20:44:13.609Z,93.00
2022-12-25T20:49:17.842Z,91.70
2022-12-25T20:54:19.485Z,91.10
2022-12-25T20:59:21.204Z,88.50
2022-12-25T21:04:23.286Z,86.50
2022-12-25T21:09:24.986Z,81.10
2022-12-25T21:14:29.453Z,84.40
2022-12-25T21:19:31.299Z,88.20
2022-12-25T21:24:32.929Z,87.70
2022-12-25T21:29:34.673Z,95.50
2022-12-25T21:34:36.603Z,105.40
2022-12-25T21:39:40.399Z,99.50
2022-12-25T21:44:43.207Z,102.30
2022-12-25T21:50:03.821Z,94.70
2022-12-25T21:55:05.962Z,102.50
2022-12-25T22:00:08.651Z,142.10
2022-12-25T22:05:30.235Z,257.50
2022-12-25T22:10:32.004Z,155.90
2022-12-25T22:15:52.989Z,154.80
2022-12-25T22:20:54.788Z,355.70
2022-12-25T22:25:56.460Z,358.50
2022-12-25T22:31:04.120Z,192.20
2022-12-25T22:36:08.281Z,192.10
2022-12-25T22:41:10.087Z,118.00
2022-12-25T22:46:11.822Z,105.20
2022-12-25T22:51:13.598Z,101.20
2022-12-25T22:56:15.661Z,96.10
2022-12-25T23:01:17.377Z,96.20
2022-12-25T23:06:19.071Z,114.70
2022-12-25T23:11:20.937Z,107.00
2022-12-25T23:16:23.419Z,123.20
2022-12-25T23:21:45.704Z,116.90
2022-12-25T23:26:47.523Z,120.90
2022-12-25T23:31:53.599Z,116.30
2022-12-25T23:36:55.487Z,130.40
2022-12-25T23:41:57.702Z,108.50
2022-12-25T23:46:59.641Z,105.00
2022-12-25T23:52:01.771Z,126.30
2022-12-25T23:57:36.898Z,126.30
